Time;durP1;ratioP1;P1;durP2;ratioP2;P2;SDS_P1;SDS_P2;PMS_P1;PMS_P2;Temp;Humidity;BMP_temperature;BMP_pressure;BME280_temperature;BME280_humidity;BME280_pressure;Samples;Min_cycle;Max_cycle;Signal;HPM_P1;HPM_P2
2021/01/30 04:13:11;;;;;;;3.90;2.08;;;-12.80;96.70;;;;;;5036008;28;20053;-76
2021/01/30 04:15:42;;;;;;;5.05;2.45;;;-12.80;96.60;;;;;;5032053;28;20033;-77
2021/01/30 04:18:08;;;;;;;2.22;2.03;;;-12.90;96.50;;;;;;5045564;28;20028;-77
2021/01/30 04:20:35;;;;;;;2.67;2.30;;;-13.00;96.80;;;;;;5031597;28;20033;-77
2021/01/30 04:23:01;;;;;;;2.70;2.05;;;-12.90;97.20;;;;;;5033936;28;20021;-77
2021/01/30 04:25:28;;;;;;;3.05;2.25;;;-12.90;96.90;;;;;;5043305;28;20424;-77
2021/01/30 04:27:54;;;;;;;5.03;2.38;;;-12.90;96.70;;;;;;5041014;28;20037;-77
2021/01/30 04:30:23;;;;;;;2.65;2.13;;;-12.90;96.80;;;;;;5037421;28;20025;-77
2021/01/30 04:32:49;;;;;;;4.25;2.38;;;-12.90;97.30;;;;;;5038558;28;20017;-77
2021/01/30 04:35:16;;;;;;;3.03;2.25;;;-12.80;97.30;;;;;;5036430;28;20032;-78
2021/01/30 04:37:42;;;;;;;7.25;2.63;;;-12.80;97.00;;;;;;5040105;28;20037;-74
2021/01/30 04:40:16;;;;;;;3.33;2.78;;;-12.80;97.10;;;;;;5045364;28;20017;-73
2021/01/30 04:42:54;;;;;;;3.88;2.28;;;-12.80;96.70;;;;;;5041874;28;20489;-74
2021/01/30 04:45:56;;;;;;;3.17;2.28;;;-12.80;96.70;;;;;;5036858;28;20357;-74
2021/01/30 04:48:43;;;;;;;3.75;2.25;;;-12.80;96.50;;;;;;5037212;28;20037;-73
2021/01/30 04:51:40;;;;;;;3.38;2.40;;;-12.80;96.50;;;;;;5039997;28;20029;-73
2021/01/30 04:54:29;;;;;;;3.20;1.90;;;-12.80;96.50;;;;;;5031341;28;20033;-74
2021/01/30 04:56:57;;;;;;;2.85;2.00;;;-12.70;96.70;;;;;;5045388;28;20105;-74
2021/01/30 04:59:40;;;;;;;2.22;2.03;;;-12.70;96.60;;;;;;5039052;28;20021;-74
2021/01/30 05:02:29;;;;;;;2.40;2.05;;;-12.70;96.70;;;;;;5037166;28;20569;-74
2021/01/30 05:04:57;;;;;;;4.07;2.35;;;-12.70;97.00;;;;;;5051149;28;20021;-73
2021/01/30 05:07:31;;;;;;;2.80;2.05;;;-12.60;96.90;;;;;;5036952;28;20032;-73
2021/01/30 05:10:10;;;;;;;2.63;2.03;;;-12.60;96.70;;;;;;5040569;28;20028;-73
2021/01/30 05:12:54;;;;;;;3.17;2.10;;;-12.60;96.90;;;;;;5045023;28;20014;-73
2021/01/30 05:15:55;;;;;;;2.15;1.80;;;-12.60;97.00;;;;;;5044047;28;20049;-73
2021/01/30 05:18:30;;;;;;;2.67;2.13;;;-12.60;97.10;;;;;;5041048;28;20025;-73
2021/01/30 05:21:06;;;;;;;4.07;1.98;;;-12.60;97.30;;;;;;5044805;28;20025;-73
2021/01/30 05:23:34;;;;;;;3.75;2.33;;;-12.50;97.40;;;;;;5030957;28;20793;-73
2021/01/30 05:26:20;;;;;;;4.53;2.58;;;-12.50;97.30;;;;;;5043823;28;20499;-73
2021/01/30 05:29:14;;;;;;;2.85;2.03;;;-12.40;96.90;;;;;;5043472;28;20371;-71
2021/01/30 05:32:02;;;;;;;5.05;2.22;;;-12.40;97.10;;;;;;5045343;28;20060;-73
2021/01/30 05:34:47;;;;;;;6.40;2.50;;;-12.50;97.30;;;;;;5043889;28;20025;-81
2021/01/30 05:37:21;;;;;;;4.40;2.10;;;-12.50;97.70;;;;;;5030806;28;20489;-75
2021/01/30 05:40:07;;;;;;;2.78;1.92;;;-12.40;97.80;;;;;;5031310;28;20025;-77
2021/01/30 05:42:46;;;;;;;3.88;2.17;;;-12.40;97.80;;;;;;5030361;28;20471;-80
2021/01/30 05:45:15;;;;;;;3.25;2.30;;;-11.90;99.90;;;;;;5037252;28;20013;-77
2021/01/30 05:47:41;;;;;;;2.13;1.77;;;-11.60;99.90;;;;;;5045058;28;20084;-78
2021/01/30 05:50:36;;;;;;;2.03;1.88;;;-11.80;99.90;;;;;;5034346;28;20034;-80
2021/01/30 05:53:03;;;;;;;2.47;2.13;;;-11.90;98.90;;;;;;5034179;28;20030;-78
2021/01/30 05:55:29;;;;;;;5.47;2.83;;;-12.10;98.20;;;;;;5040141;28;20025;-84
2021/01/30 05:58:03;;;;;;;6.90;2.30;;;-12.10;98.50;;;;;;5047480;28;20100;-75
2021/01/30 06:00:29;;;;;;;8.20;2.65;;;-12.10;98.60;;;;;;5040263;28;20090;-75
2021/01/30 06:03:05;;;;;;;3.30;2.33;;;-12.10;98.50;;;;;;5044451;28;20389;-74
2021/01/30 06:05:43;;;;;;;5.82;2.65;;;-12.20;98.40;;;;;;5039804;28;20421;-82
2021/01/30 06:08:14;;;;;;;3.15;2.30;;;-12.20;98.80;;;;;;5048239;28;20037;-79
2021/01/30 06:10:40;;;;;;;;;;;-12.10;99.10;;;;;;5043773;28;20388;-82
2021/01/30 06:13:16;;;;;;;2.30;2.05;;;-12.10;99.60;;;;;;5042235;28;19943;-81
2021/01/30 06:15:46;;;;;;;2.90;2.40;;;-12.10;99.50;;;;;;5052900;28;20396;-82
2021/01/30 06:18:37;;;;;;;1.92;1.67;;;-12.00;99.10;;;;;;5046196;28;20021;-82
2021/01/30 06:21:03;;;;;;;3.63;2.25;;;-12.00;99.10;;;;;;5047718;28;20485;-82
2021/01/30 06:23:29;;;;;;;2.83;2.22;;;-12.00;99.20;;;;;;5052355;28;20024;-83
2021/01/30 06:26:13;;;;;;;1.50;1.45;;;-12.00;98.90;;;;;;5041367;28;20104;-78
2021/01/30 06:28:42;;;;;;;3.85;2.35;;;-11.90;99.30;;;;;;5047540;28;20041;-82
2021/01/30 06:31:10;;;;;;;5.30;2.50;;;-11.90;99.30;;;;;;5041070;28;20021;-82
2021/01/30 06:33:44;;;;;;;4.35;2.53;;;-11.60;99.90;;;;;;5045617;28;20029;-82
2021/01/30 06:36:15;;;;;;;4.85;2.83;;;-11.60;99.90;;;;;;5039886;28;20025;-82
2021/01/30 06:38:45;;;;;;;3.90;2.47;;;-11.60;99.90;;;;;;5052751;28;20028;-82
2021/01/30 06:41:25;;;;;;;2.70;2.20;;;-11.60;99.90;;;;;;5045473;28;20052;-82
2021/01/30 06:44:35;;;;;;;9.98;2.60;;;-11.60;98.90;;;;;;5045402;28;20025;-82
2021/01/30 06:47:08;;;;;;;3.67;2.60;;;-11.60;99.10;;;;;;5016481;28;20030;-82
2021/01/30 06:49:45;;;;;;;3.22;2.30;;;-11.60;99.10;;;;;;5045843;28;20107;-82
2021/01/30 06:52:15;;;;;;;3.85;2.25;;;-11.60;99.20;;;;;;5042627;28;20021;-82
2021/01/30 06:54:41;;;;;;;2.85;1.88;;;-11.60;99.20;;;;;;5045574;28;20029;-83
2021/01/30 06:57:49;;;;;;;2.78;2.13;;;-11.60;99.10;;;;;;5052940;28;20112;-79
2021/01/30 07:00:15;;;;;;;4.35;2.17;;;-11.60;98.80;;;;;;5040232;28;20029;-83
2021/01/30 07:02:49;;;;;;;3.13;2.50;;;-11.60;98.90;;;;;;5051966;28;20078;-78
2021/01/30 07:05:27;;;;;;;2.78;2.35;;;-11.40;99.90;;;;;;5040895;28;20029;-78
2021/01/30 07:08:10;;;;;;;4.95;2.80;;;-10.50;99.90;;;;;;5046837;28;20037;-82
2021/01/30 07:10:59;;;;;;;4.43;2.75;;;-10.10;99.90;;;;;;5048543;28;20498;-81
2021/01/30 07:13:52;;;;;;;4.68;3.00;;;-10.40;99.90;;;;;;5026685;28;20034;-81
2021/01/30 07:16:49;;;;;;;3.45;2.50;;;-10.60;99.90;;;;;;5042199;28;20032;-80
2021/01/30 07:19:20;;;;;;;4.03;2.78;;;-10.80;99.90;;;;;;5036291;28;20025;-82
2021/01/30 07:21:51;;;;;;;5.32;3.00;;;-10.90;99.90;;;;;;5041310;28;20032;-81
2021/01/30 07:24:26;;;;;;;7.53;2.80;;;-11.00;99.90;;;;;;5046428;28;20029;-81
2021/01/30 07:27:12;;;;;;;4.78;2.70;;;-11.00;99.90;;;;;;5035862;28;20037;-82
2021/01/30 07:29:56;;;;;;;9.77;3.40;;;-11.10;99.90;;;;;;5037832;28;20040;-77
2021/01/30 07:32:31;;;;;;;5.82;3.08;;;-11.10;99.90;;;;;;5044062;28;20049;-77
2021/01/30 07:35:25;;;;;;;3.78;2.72;;;-11.10;99.80;;;;;;5040457;28;20386;-81
2021/01/30 07:38:00;;;;;;;7.40;3.67;;;-11.20;99.70;;;;;;5046723;28;20496;-84
2021/01/30 07:40:34;;;;;;;20.63;8.05;;;-11.10;99.90;;;;;;5050866;28;20056;-78
2021/01/30 07:43:17;;;;;;;137.93;36.50;;;-11.20;99.90;;;;;;5052047;28;20029;-77
2021/01/30 07:46:11;;;;;;;38.80;12.35;;;-11.10;99.90;;;;;;5033044;28;20018;-76
2021/01/30 07:48:52;;;;;;;26.67;9.73;;;-11.10;99.90;;;;;;5048171;28;20046;-83
2021/01/30 07:51:33;;;;;;;12.25;4.97;;;-11.10;99.90;;;;;;5052013;28;20053;-79
2021/01/30 07:54:01;;;;;;;6.20;4.07;;;-11.00;99.90;;;;;;5046682;28;20040;-76
2021/01/30 07:56:42;;;;;;;6.47;3.65;;;-11.00;99.90;;;;;;5043276;28;20067;-73
2021/01/30 07:59:34;;;;;;;4.32;2.70;;;-10.90;99.90;;;;;;5050110;28;20025;-71
2021/01/30 08:02:05;;;;;;;7.43;3.08;;;-10.90;99.90;;;;;;5036937;28;20038;-73
2021/01/30 08:04:56;;;;;;;5.53;2.67;;;-10.80;99.90;;;;;;5044064;28;20425;-73
2021/01/30 08:07:46;;;;;;;8.90;3.17;;;-10.80;99.90;;;;;;5045129;28;20017;-75
2021/01/30 08:10:24;;;;;;;7.07;2.90;;;-10.80;99.90;;;;;;5044695;28;20120;-80
2021/01/30 08:13:18;;;;;;;10.00;5.57;;;-10.70;99.90;;;;;;5032189;28;20500;-82
2021/01/30 08:15:57;;;;;;;7.82;5.65;;;-10.70;99.90;;;;;;5045642;28;20048;-78
2021/01/30 08:18:40;;;;;;;6.35;4.82;;;-10.70;99.90;;;;;;5041677;28;20530;-80
2021/01/30 08:21:10;;;;;;;3.60;3.03;;;-10.60;99.90;;;;;;5037048;28;20025;-77
2021/01/30 08:23:39;;;;;;;4.13;2.63;;;-10.60;99.90;;;;;;5038661;28;20013;-77
2021/01/30 08:26:28;;;;;;;4.28;2.95;;;-10.60;99.90;;;;;;5038255;28;20562;-78
2021/01/30 08:29:09;;;;;;;6.07;3.47;;;-10.50;99.90;;;;;;5031745;28;20198;-77
2021/01/30 08:31:42;;;;;;;8.50;3.20;;;-10.50;99.90;;;;;;5045928;28;20026;-77
2021/01/30 08:34:25;;;;;;;3.20;2.80;;;-10.40;99.90;;;;;;5038076;28;20033;-80
2021/01/30 08:37:13;;;;;;;4.22;3.03;;;-10.40;99.90;;;;;;5045536;28;20026;-77
2021/01/30 08:40:00;;;;;;;3.50;2.25;;;-10.20;99.90;;;;;;5050416;28;20032;-81
2021/01/30 08:42:29;;;;;;;4.78;2.92;;;-8.80;99.90;;;;;;5043460;28;20030;-76
2021/01/30 08:45:01;;;;;;;4.07;2.78;;;-8.50;99.90;;;;;;5031938;28;20037;-79
2021/01/30 08:47:31;;;;;;;5.10;3.00;;;-7.10;99.90;;;;;;5031305;28;20021;-78
2021/01/30 08:50:02;;;;;;;4.60;2.60;;;-7.90;99.90;;;;;;5031415;28;20029;-78
2021/01/30 08:52:52;;;;;;;3.42;2.85;;;-8.50;99.90;;;;;;5037870;28;20100;-78
2021/01/30 08:55:44;;;;;;;5.10;3.17;;;-8.80;99.90;;;;;;5037288;28;20048;-80
2021/01/30 08:58:32;;;;;;;5.65;3.10;;;-9.00;99.90;;;;;;5048148;28;20040;-79
2021/01/30 09:01:00;;;;;;;4.50;2.85;;;-9.10;99.90;;;;;;5044495;28;20018;-79
2021/01/30 09:03:47;;;;;;;4.38;2.80;;;-9.20;99.90;;;;;;5046272;28;20117;-77
2021/01/30 09:06:40;;;;;;;4.18;2.47;;;-9.20;99.90;;;;;;5041317;28;20044;-77
2021/01/30 09:09:06;;;;;;;3.03;2.25;;;-9.30;99.90;;;;;;5045396;28;20042;-77
2021/01/30 09:11:40;;;;;;;4.55;3.03;;;-9.20;99.90;;;;;;5057741;28;20044;-79
2021/01/30 09:14:29;;;;;;;5.28;2.28;;;-9.20;99.90;;;;;;5049401;28;20048;-78
2021/01/30 09:17:05;;;;;;;5.00;2.60;;;-9.20;99.90;;;;;;5048056;28;20116;-80
2021/01/30 09:20:09;;;;;;;2.92;2.03;;;-9.20;99.90;;;;;;5050015;28;20053;-80
2021/01/30 09:22:57;;;;;;;3.30;2.25;;;-9.10;99.90;;;;;;5051469;28;20025;-81
2021/01/30 09:25:33;;;;;;;4.93;3.03;;;-9.10;99.90;;;;;;5035015;28;20026;-80
2021/01/30 09:28:14;;;;;;;5.90;2.85;;;-9.10;99.90;;;;;;5036242;28;20470;-80
2021/01/30 09:30:42;;;;;;;5.75;2.15;;;-9.00;99.90;;;;;;5054272;28;20384;-79
2021/01/30 09:33:32;;;;;;;1.80;1.70;;;-9.00;99.90;;;;;;5040617;28;20100;-76
2021/01/30 09:36:15;;;;;;;2.72;2.10;;;-8.90;99.90;;;;;;5044845;28;20018;-78
2021/01/30 09:38:48;;;;;;;5.10;2.60;;;-8.90;99.90;;;;;;5041117;28;20025;-78
2021/01/30 09:41:27;;;;;;;4.13;2.55;;;-8.80;99.90;;;;;;5054063;28;20025;-77
2021/01/30 09:44:22;;;;;;;4.82;2.65;;;-8.80;99.90;;;;;;5042379;28;20079;-77
2021/01/30 09:46:52;;;;;;;4.10;2.42;;;-8.70;99.90;;;;;;5050549;28;20476;-77
2021/01/30 09:49:26;;;;;;;3.30;2.53;;;-8.70;99.90;;;;;;5048230;28;20033;-78
2021/01/30 09:51:55;;;;;;;6.05;3.00;;;-8.60;99.90;;;;;;5047213;28;20065;-78
2021/01/30 09:54:24;;;;;;;4.25;2.95;;;-8.60;99.90;;;;;;5042007;28;20150;-80
2021/01/30 09:56:53;;;;;;;3.78;2.50;;;-8.50;99.90;;;;;;5052430;28;20025;-79
2021/01/30 09:59:25;;;;;;;4.60;2.78;;;-8.50;99.90;;;;;;5044945;28;20021;-79
2021/01/30 10:01:51;;;;;;;3.03;2.28;;;-8.40;99.90;;;;;;5045299;28;20029;-78
2021/01/30 10:04:27;;;;;;;4.40;2.78;;;-8.40;99.90;;;;;;5040561;28;20017;-79
2021/01/30 10:07:04;;;;;;;4.95;2.55;;;-8.30;99.90;;;;;;5051723;28;20025;-80
2021/01/30 10:09:36;;;;;;;3.28;2.58;;;-8.30;99.90;;;;;;5050328;28;20025;-77
2021/01/30 10:12:02;;;;;;;3.47;2.58;;;-8.20;99.90;;;;;;5053968;28;20017;-77
2021/01/30 10:14:35;;;;;;;3.63;2.47;;;-8.20;99.90;;;;;;5053388;28;20582;-77
2021/01/30 10:17:07;;;;;;;4.25;2.55;;;-8.10;99.90;;;;;;5045792;28;20029;-75
2021/01/30 10:19:35;;;;;;;3.45;2.28;;;-8.10;99.90;;;;;;5053608;28;20419;-77
2021/01/30 10:22:22;;;;;;;6.00;2.90;;;-8.10;99.90;;;;;;5042034;28;20026;-76
2021/01/30 10:24:50;;;;;;;4.43;2.58;;;-8.00;99.90;;;;;;5047445;28;20108;-77
2021/01/30 10:27:20;;;;;;;5.28;3.20;;;-8.00;99.90;;;;;;5042816;28;20476;-77
2021/01/30 10:29:46;;;;;;;;;;;-8.00;99.90;;;;;;5039039;28;20488;-77
2021/01/30 10:32:41;;;;;;;5.25;2.92;;;-7.90;99.90;;;;;;5045549;28;20308;-77
2021/01/30 10:35:15;;;;;;;2.92;2.47;;;-7.90;99.90;;;;;;5046957;28;20041;-77
2021/01/30 10:37:48;;;;;;;3.22;2.17;;;-7.90;99.90;;;;;;5033583;28;20096;-77
2021/01/30 10:40:34;;;;;;;5.05;3.28;;;-7.90;99.90;;;;;;5032399;28;20025;-77
2021/01/30 10:43:03;;;;;;;4.22;2.67;;;-7.80;99.90;;;;;;5033270;28;20029;-77
2021/01/30 10:45:31;;;;;;;5.75;2.85;;;-7.80;99.90;;;;;;5033462;28;20652;-76
2021/01/30 10:48:07;;;;;;;3.72;2.40;;;-7.80;99.90;;;;;;5044858;28;20033;-77
2021/01/30 10:50:36;;;;;;;6.47;2.50;;;-7.80;99.90;;;;;;5039036;28;20024;-77
2021/01/30 10:53:33;;;;;;;5.53;3.38;;;-7.70;99.90;;;;;;5041976;28;20036;-77
2021/01/30 10:55:59;;;;;;;5.47;2.55;;;-7.70;99.90;;;;;;5033209;28;20512;-79
2021/01/30 10:58:25;;;;;;;5.13;2.80;;;-7.60;99.90;;;;;;5046966;28;20033;-76
2021/01/30 11:00:59;;;;;;;5.10;2.78;;;-7.60;99.90;;;;;;5038722;28;20027;-76
2021/01/30 11:03:46;;;;;;;4.63;2.75;;;-7.60;99.90;;;;;;5040177;28;20100;-76
2021/01/30 11:06:45;;;;;;;2.67;2.42;;;-7.50;99.90;;;;;;5032705;28;20448;-76
2021/01/30 11:09:23;;;;;;;3.05;2.38;;;-7.50;99.90;;;;;;5046653;28;20033;-76
2021/01/30 11:11:51;;;;;;;4.75;2.92;;;-7.50;99.90;;;;;;5043380;28;20025;-76
2021/01/30 11:14:27;;;;;;;3.67;2.63;;;-7.50;99.90;;;;;;5038647;28;20060;-76
2021/01/30 11:16:55;;;;;;;3.85;2.53;;;-7.50;99.90;;;;;;5041228;28;20029;-76
2021/01/30 11:19:25;;;;;;;3.30;2.38;;;-7.40;99.90;;;;;;5046617;28;20021;-76
2021/01/30 11:22:17;;;;;;;4.88;2.28;;;-7.40;99.90;;;;;;5036382;28;20030;-76
2021/01/30 11:24:47;;;;;;;4.05;2.55;;;-7.30;99.90;;;;;;5046380;28;20033;-76
2021/01/30 11:27:34;;;;;;;5.30;2.92;;;-7.30;99.90;;;;;;5041296;28;20017;-76
2021/01/30 11:30:15;;;;;;;6.28;3.05;;;-7.30;99.90;;;;;;5036949;28;20049;-76
2021/01/30 11:32:49;;;;;;;3.22;1.98;;;-7.20;99.90;;;;;;5052433;28;20086;-77
2021/01/30 11:35:36;;;;;;;5.55;2.75;;;-7.20;99.90;;;;;;5033267;28;20512;-77
2021/01/30 11:38:09;;;;;;;3.83;2.20;;;-7.20;99.90;;;;;;5046200;28;20117;-77
2021/01/30 11:40:35;;;;;;;4.93;3.03;;;-7.20;99.90;;;;;;5032056;28;20022;-77
2021/01/30 11:43:01;;;;;;;4.13;3.08;;;-7.20;99.90;;;;;;5045050;28;20496;-77
2021/01/30 11:45:26;;;;;;;3.95;2.33;;;-7.10;99.90;;;;;;5037925;28;20028;-77
2021/01/30 11:47:52;;;;;;;5.65;3.15;;;-7.20;99.90;;;;;;5041974;28;20037;-79
2021/01/30 11:50:18;;;;;;;5.63;3.30;;;-7.10;99.90;;;;;;5039656;28;20021;-77
2021/01/30 11:52:44;;;;;;;4.93;2.85;;;-7.10;99.90;;;;;;5046069;28;20017;-77
2021/01/30 11:55:10;;;;;;;8.15;3.40;;;-7.10;99.90;;;;;;5046713;28;20023;-77
2021/01/30 11:57:35;;;;;;;5.82;2.67;;;-7.10;99.90;;;;;;5042032;28;20029;-78
2021/01/30 12:00:02;;;;;;;4.68;2.88;;;-7.00;99.90;;;;;;5042377;28;20428;-80
2021/01/30 12:02:30;;;;;;;6.22;2.65;;;-7.00;99.90;;;;;;5050094;28;20017;-81
2021/01/30 12:04:57;;;;;;;4.22;2.92;;;-6.20;99.90;;;;;;5043581;28;20051;-82
2021/01/30 12:07:22;;;;;;;4.25;2.72;;;-5.10;99.90;;;;;;5051745;28;20021;-75
2021/01/30 12:09:48;;;;;;;4.35;2.75;;;-5.30;99.90;;;;;;5042163;28;20025;-82
2021/01/30 12:12:15;;;;;;;4.15;2.63;;;-5.80;99.90;;;;;;5041985;28;20666;-81
2021/01/30 12:14:40;;;;;;;3.65;2.50;;;-6.10;99.90;;;;;;5046996;28;20060;-76
2021/01/30 12:17:08;;;;;;;4.88;2.85;;;-5.80;99.90;;;;;;5042119;28;20032;-73
2021/01/30 12:19:33;;;;;;;4.28;3.03;;;-5.80;99.90;;;;;;5035739;28;20017;-73
2021/01/30 12:21:59;;;;;;;4.05;3.00;;;-6.00;99.90;;;;;;5037069;28;20044;-73
2021/01/30 12:24:25;;;;;;;4.00;2.55;;;-6.20;99.90;;;;;;5044856;28;20032;-75
2021/01/30 12:26:51;;;;;;;3.92;2.78;;;-6.30;99.90;;;;;;5042445;28;20029;-75
2021/01/30 12:29:17;;;;;;;3.80;2.53;;;-6.40;99.90;;;;;;5045617;28;20068;-74
2021/01/30 12:31:43;;;;;;;5.55;2.88;;;-6.40;99.90;;;;;;5049446;28;20052;-75
2021/01/30 12:34:08;;;;;;;4.60;2.92;;;-5.80;99.90;;;;;;5039425;28;20505;-75
2021/01/30 12:36:34;;;;;;;4.93;2.70;;;-5.30;99.90;;;;;;5033604;28;20029;-75
2021/01/30 12:39:00;;;;;;;5.45;2.92;;;-5.60;99.90;;;;;;5042611;28;20025;-75
2021/01/30 12:41:25;;;;;;;4.43;2.50;;;-5.90;99.90;;;;;;5042669;28;20029;-75
2021/01/30 12:43:51;;;;;;;2.78;2.40;;;-6.10;99.90;;;;;;5050425;28;20021;-75
2021/01/30 12:46:17;;;;;;;4.15;2.63;;;-6.20;99.90;;;;;;5042869;28;20009;-79
2021/01/30 12:48:43;;;;;;;4.05;2.33;;;-6.30;99.90;;;;;;5046524;28;20116;-78
2021/01/30 12:51:09;;;;;;;4.20;2.58;;;-6.30;99.90;;;;;;5051177;28;20112;-78
2021/01/30 12:53:35;;;;;;;3.47;2.20;;;-6.40;99.90;;;;;;5054415;28;20427;-78
2021/01/30 12:56:00;;;;;;;4.00;2.50;;;-6.40;99.90;;;;;;5055311;28;20365;-78
2021/01/30 12:58:28;;;;;;;3.88;2.78;;;-6.40;99.90;;;;;;5055169;28;20547;-78
2021/01/30 13:00:55;;;;;;;4.57;2.63;;;-6.40;99.90;;;;;;5042466;28;20029;-80
2021/01/30 13:03:23;;;;;;;4.28;2.67;;;-6.30;99.90;;;;;;5047618;28;20377;-78
2021/01/30 13:05:50;;;;;;;2.70;2.20;;;-6.10;99.90;;;;;;5041427;28;20060;-78
2021/01/30 13:08:18;;;;;;;4.70;2.58;;;-6.20;99.90;;;;;;5045412;28;20171;-78
2021/01/30 13:10:44;;;;;;;5.30;2.65;;;-6.30;99.90;;;;;;5050137;28;20071;-78
2021/01/30 13:13:10;;;;;;;4.25;2.45;;;-6.30;99.90;;;;;;5044269;28;20029;-75
2021/01/30 13:15:36;;;;;;;3.33;2.25;;;-6.40;99.90;;;;;;5056280;28;20080;-83
2021/01/30 13:18:03;;;;;;;4.10;2.38;;;-6.40;99.90;;;;;;5055042;28;20126;-84
2021/01/30 13:20:29;;;;;;;4.50;2.67;;;-6.40;99.90;;;;;;5043233;28;20486;-90
2021/01/30 13:22:56;;;;;;;4.40;2.53;;;-6.50;99.90;;;;;;5054527;28;20060;-89
2021/01/30 13:25:22;;;;;;;4.30;2.40;;;-6.50;99.90;;;;;;5047484;28;20021;-88
2021/01/30 13:27:47;;;;;;;3.45;2.45;;;-6.50;99.90;;;;;;5048465;28;20435;-89
2021/01/30 13:30:19;;;;;;;3.25;2.50;;;-6.50;99.90;;;;;;5035951;28;20104;-88
2021/01/30 13:32:45;;;;;;;2.78;2.30;;;-6.60;99.90;;;;;;5047409;28;20060;-89
2021/01/30 13:35:13;;;;;;;3.65;2.72;;;-6.60;99.90;;;;;;5044210;28;20060;-88
2021/01/30 13:37:39;;;;;;;3.28;2.15;;;-6.60;99.90;;;;;;5043328;28;20021;-88
2021/01/30 13:40:05;;;;;;;3.40;2.30;;;-6.60;99.90;;;;;;5054407;28;20041;-78
2021/01/30 13:42:31;;;;;;;4.03;2.60;;;-6.60;99.90;;;;;;5053700;28;20009;-76
2021/01/30 13:44:57;;;;;;;3.75;2.38;;;-6.60;99.90;;;;;;5053694;28;20463;-76
2021/01/30 13:47:23;;;;;;;10.30;3.10;;;-6.50;99.90;;;;;;5036247;28;20025;-77
2021/01/30 13:49:49;;;;;;;3.58;2.58;;;-6.00;99.90;;;;;;5045915;28;20030;-80
2021/01/30 13:52:15;;;;;;;3.67;2.47;;;-5.50;99.90;;;;;;5051644;28;20114;-80
2021/01/30 13:54:40;;;;;;;3.08;2.25;;;-5.80;99.90;;;;;;5041925;28;20037;-82
2021/01/30 13:57:06;;;;;;;3.50;2.05;;;-6.00;99.90;;;;;;5042250;28;20023;-80
2021/01/30 13:59:34;;;;;;;3.78;2.63;;;-6.20;99.90;;;;;;5051227;28;20100;-79
2021/01/30 14:01:59;;;;;;;6.00;2.47;;;-6.20;99.90;;;;;;5049672;28;20035;-79
2021/01/30 14:04:25;;;;;;;3.55;2.38;;;-6.30;99.90;;;;;;5041924;28;20025;-80
2021/01/30 14:06:51;;;;;;;4.72;2.60;;;-6.20;99.90;;;;;;5045787;28;20037;-82
2021/01/30 14:09:16;;;;;;;3.20;2.40;;;-6.30;99.90;;;;;;5043727;28;20029;-82
2021/01/30 14:11:43;;;;;;;3.88;2.08;;;-6.30;99.90;;;;;;5036741;28;20555;-78
2021/01/30 14:14:09;;;;;;;3.40;2.35;;;-6.30;99.90;;;;;;5042435;28;20508;-78
2021/01/30 14:16:38;;;;;;;2.90;2.33;;;-6.40;99.90;;;;;;5044551;28;20052;-76
2021/01/30 14:19:03;;;;;;;3.92;2.63;;;-6.40;99.90;;;;;;5049244;28;20028;-82
2021/01/30 14:21:29;;;;;;;3.85;2.17;;;-6.40;99.90;;;;;;5045463;28;20412;-82
2021/01/30 14:23:55;;;;;;;3.08;2.00;;;-6.40;99.90;;;;;;5043982;28;20017;-79
2021/01/30 14:26:25;;;;;;;4.15;2.63;;;-6.40;99.90;;;;;;5033871;28;20389;-77
2021/01/30 14:28:51;;;;;;;3.80;2.38;;;-6.50;99.90;;;;;;5033824;28;20511;-82
2021/01/30 14:31:17;;;;;;;2.47;2.05;;;-6.50;99.90;;;;;;5033733;28;20022;-79
2021/01/30 14:33:43;;;;;;;4.78;2.10;;;-6.50;99.90;;;;;;5050422;28;20017;-81
2021/01/30 14:36:09;;;;;;;4.32;2.47;;;-6.50;99.90;;;;;;5048306;28;20025;-81
2021/01/30 14:38:36;;;;;;;4.15;2.80;;;-6.50;99.90;;;;;;5035343;28;20152;-79
2021/01/30 14:41:02;;;;;;;2.97;2.20;;;-6.50;99.90;;;;;;5033476;28;20045;-81
2021/01/30 14:43:28;;;;;;;4.25;2.60;;;-6.50;99.90;;;;;;5036293;28;20124;-79
2021/01/30 14:45:54;;;;;;;2.70;1.98;;;-6.50;99.90;;;;;;5045455;28;20152;-81
2021/01/30 14:48:19;;;;;;;6.13;2.40;;;-6.50;99.90;;;;;;5036349;28;20030;-84
2021/01/30 14:50:46;;;;;;;4.50;2.38;;;-6.50;99.90;;;;;;5047717;28;20029;-82
2021/01/30 14:53:12;;;;;;;4.25;2.33;;;-6.50;99.90;;;;;;5037062;28;20030;-75
2021/01/30 14:55:38;;;;;;;4.70;2.42;;;-6.50;99.90;;;;;;5044874;28;20027;-76
2021/01/30 14:58:04;;;;;;;2.80;2.13;;;-6.50;99.90;;;;;;5045170;28;20108;-84
2021/01/30 15:00:30;;;;;;;2.85;2.42;;;-6.50;99.90;;;;;;5046572;28;20104;-84
2021/01/30 15:02:56;;;;;;;2.95;2.20;;;-6.50;99.90;;;;;;5051612;28;20028;-85
2021/01/30 15:05:22;;;;;;;3.70;2.47;;;-6.50;99.90;;;;;;5047885;28;20017;-85
2021/01/30 15:07:48;;;;;;;5.68;2.22;;;-6.40;99.90;;;;;;5046536;28;20103;-85
2021/01/30 15:10:17;;;;;;;3.95;2.50;;;-6.40;99.90;;;;;;5047795;28;20266;-84
2021/01/30 15:12:43;;;;;;;3.47;2.40;;;-6.40;99.90;;;;;;5052057;28;20492;-84
2021/01/30 15:15:11;;;;;;;2.58;2.15;;;-6.30;99.90;;;;;;5045963;28;20041;-85
2021/01/30 15:17:37;;;;;;;4.35;2.45;;;-6.30;99.90;;;;;;5046170;28;20531;-85
2021/01/30 15:20:05;;;;;;;6.30;2.60;;;-6.40;99.90;;;;;;5050436;28;20040;-85
2021/01/30 15:22:31;;;;;;;3.22;2.42;;;-6.30;99.90;;;;;;5048589;28;20021;-84
2021/01/30 15:24:56;;;;;;;3.33;2.47;;;-6.30;99.90;;;;;;5034326;28;20520;-80
2021/01/30 15:27:24;;;;;;;6.63;2.78;;;-6.30;99.90;;;;;;5032827;28;20076;-83
2021/01/30 15:29:50;;;;;;;6.90;3.35;;;-6.20;99.90;;;;;;5046426;28;20043;-80
2021/01/30 15:32:16;;;;;;;6.35;2.95;;;-6.20;99.90;;;;;;5040991;28;20028;-78
2021/01/30 15:34:43;;;;;;;5.93;3.30;;;-6.20;99.90;;;;;;5037823;28;20029;-78
2021/01/30 15:37:10;;;;;;;5.05;2.78;;;-6.20;99.90;;;;;;5038750;28;20600;-79
2021/01/30 15:39:35;;;;;;;5.85;2.63;;;-6.20;99.90;;;;;;5040038;28;20605;-79
2021/01/30 15:42:01;;;;;;;5.13;3.05;;;-6.20;99.90;;;;;;5054742;28;20036;-78
2021/01/30 15:44:27;;;;;;;4.28;2.78;;;-6.20;99.90;;;;;;5046217;28;20107;-78
2021/01/30 15:46:53;;;;;;;5.68;2.80;;;-6.20;99.90;;;;;;5037821;28;20044;-78
2021/01/30 15:49:19;;;;;;;3.97;2.42;;;-6.20;99.90;;;;;;5063081;28;20028;-76
2021/01/30 15:51:50;;;;;;;3.85;2.55;;;-6.20;99.90;;;;;;5060682;28;20170;-77
2021/01/30 15:54:16;;;;;;;4.88;3.13;;;-6.20;99.90;;;;;;5039415;28;20032;-77
2021/01/30 15:56:43;;;;;;;5.30;2.25;;;-6.20;99.90;;;;;;5038452;28;20044;-75
2021/01/30 15:59:09;;;;;;;3.85;2.78;;;-6.20;99.90;;;;;;5045765;28;20017;-74
2021/01/30 16:01:36;;;;;;;4.88;2.53;;;-6.20;99.90;;;;;;5042432;28;20052;-74
2021/01/30 16:04:02;;;;;;;4.47;2.60;;;-6.20;99.90;;;;;;5033936;28;20428;-73
2021/01/30 16:06:27;;;;;;;3.80;2.60;;;-6.20;99.90;;;;;;5032097;28;20017;-75
2021/01/30 16:08:53;;;;;;;3.85;2.22;;;-6.20;99.90;;;;;;5045533;28;20116;-75
2021/01/30 16:11:19;;;;;;;4.97;2.65;;;-6.20;99.90;;;;;;5039576;28;20021;-74
2021/01/30 16:13:44;;;;;;;3.47;2.25;;;-6.20;99.90;;;;;;5037883;28;20099;-76
2021/01/30 16:16:10;;;;;;;3.67;2.20;;;-6.20;99.90;;;;;;5045748;28;20021;-76
2021/01/30 16:18:36;;;;;;;3.58;2.30;;;-6.20;99.90;;;;;;5043325;28;20628;-79
2021/01/30 16:21:02;;;;;;;3.67;2.30;;;-6.20;99.90;;;;;;5037399;28;20082;-76
2021/01/30 16:23:28;;;;;;;5.43;2.67;;;-6.30;99.90;;;;;;5031657;28;20037;-78
2021/01/30 16:25:53;;;;;;;3.22;2.63;;;-6.30;99.90;;;;;;5031438;28;20097;-76
2021/01/30 16:28:21;;;;;;;2.72;2.30;;;-6.30;99.90;;;;;;5045105;28;20079;-78
2021/01/30 16:30:46;;;;;;;4.25;2.47;;;-6.30;99.90;;;;;;5041198;28;20029;-78
2021/01/30 16:33:14;;;;;;;4.32;2.65;;;-6.30;99.90;;;;;;5036142;28;20095;-79
2021/01/30 16:35:40;;;;;;;2.40;1.85;;;-6.30;99.90;;;;;;5044442;28;20053;-80
2021/01/30 16:38:08;;;;;;;3.22;2.33;;;-6.30;99.90;;;;;;5039159;28;20057;-79
2021/01/30 16:40:35;;;;;;;5.40;2.25;;;-6.40;99.90;;;;;;5047391;28;20017;-78
2021/01/30 16:43:05;;;;;;;4.10;2.78;;;-6.40;99.90;;;;;;5048458;28;20017;-78
2021/01/30 16:45:32;;;;;;;4.82;2.75;;;-6.40;99.90;;;;;;5051059;28;20047;-74
2021/01/30 16:47:57;;;;;;;5.35;2.45;;;-6.40;99.90;;;;;;5047406;28;20048;-78
2021/01/30 16:50:23;;;;;;;4.57;2.65;;;-6.40;99.90;;;;;;5047196;28;20359;-80
2021/01/30 16:52:52;;;;;;;3.65;2.50;;;-6.20;99.90;;;;;;5041150;28;20072;-78
2021/01/30 16:55:18;;;;;;;2.80;2.17;;;-5.40;99.90;;;;;;5042834;28;20111;-79
2021/01/30 16:57:44;;;;;;;2.88;2.00;;;-5.60;99.90;;;;;;5051376;28;20082;-79
2021/01/30 17:00:17;;;;;;;4.18;2.53;;;-5.90;99.90;;;;;;5035772;28;20025;-79
2021/01/30 17:02:43;;;;;;;4.15;2.38;;;-6.00;99.90;;;;;;5041098;28;20401;-78
2021/01/30 17:05:10;;;;;;;2.67;2.30;;;-6.10;99.90;;;;;;5046338;28;20029;-79
2021/01/30 17:07:35;;;;;;;2.85;2.50;;;-6.20;99.90;;;;;;5045004;28;20009;-79
2021/01/30 17:10:01;;;;;;;2.58;2.20;;;-6.20;99.90;;;;;;5045005;28;20032;-80
2021/01/30 17:12:27;;;;;;;3.00;2.13;;;-6.30;99.90;;;;;;5045401;28;20028;-80
2021/01/30 17:14:53;;;;;;;3.60;2.40;;;-6.30;99.90;;;;;;5050668;28;20049;-80
2021/01/30 17:17:18;;;;;;;3.72;2.45;;;-6.30;99.90;;;;;;5048102;28;20036;-77
2021/01/30 17:19:44;;;;;;;3.53;2.50;;;-6.30;99.90;;;;;;5048370;28;20033;-81
2021/01/30 17:22:12;;;;;;;3.60;2.45;;;-5.50;99.90;;;;;;5041715;28;20026;-77